Time;durP1;ratioP1;P1;durP2;ratioP2;P2;SDS_P1;SDS_P2;PMS_P1;PMS_P2;Temp;Humidity;BMP_temperature;BMP_pressure;BME280_temperature;BME280_humidity;BME280_pressure;Samples;Min_cycle;Max_cycle;Signal;HPM_P1;HPM_P2
2022/03/25 00:01:26;;;;;;;89.53;48.27;;;8.90;23.30;;;;;;4981448;28;20838;-75
2022/03/25 00:03:52;;;;;;;94.83;49.20;;;8.60;23.30;;;;;;4992916;28;20400;-76
2022/03/25 00:06:18;;;;;;;96.78;49.50;;;8.50;24.40;;;;;;4988799;28;20404;-75
2022/03/25 00:08:43;;;;;;;95.57;49.55;;;8.20;24.90;;;;;;4981696;28;20451;-76
2022/03/25 00:11:09;;;;;;;98.72;48.67;;;7.90;26.00;;;;;;4976619;28;20416;-77
2022/03/25 00:13:35;;;;;;;98.53;49.50;;;8.10;26.10;;;;;;4978606;28;20880;-76
2022/03/25 00:16:03;;;;;;;92.37;48.53;;;8.10;26.20;;;;;;4974598;28;20407;-77
2022/03/25 00:18:29;;;;;;;95.47;48.83;;;8.20;25.50;;;;;;4975431;28;20424;-77
2022/03/25 00:20:55;;;;;;;97.13;49.20;;;7.90;26.30;;;;;;4962465;28;20411;-77
2022/03/25 00:23:21;;;;;;;95.13;48.85;;;7.80;27.00;;;;;;4979367;28;20774;-77
2022/03/25 00:25:46;;;;;;;93.43;46.38;;;8.10;26.70;;;;;;4983832;28;20412;-77
2022/03/25 00:28:13;;;;;;;93.45;48.22;;;8.40;25.50;;;;;;4964379;28;20909;-75
2022/03/25 00:30:39;;;;;;;86.10;46.67;;;8.40;25.00;;;;;;4972455;28;20404;-77
2022/03/25 00:33:05;;;;;;;97.10;50.00;;;8.20;25.70;;;;;;4972902;28;20434;-78
2022/03/25 00:35:31;;;;;;;97.63;50.10;;;8.30;26.20;;;;;;4972191;28;20412;-77
2022/03/25 00:37:58;;;;;;;93.45;48.40;;;8.30;26.00;;;;;;4974104;28;20400;-77
2022/03/25 00:40:24;;;;;;;92.45;48.95;;;8.00;26.70;;;;;;4974919;28;20426;-75
2022/03/25 00:42:50;;;;;;;98.30;50.90;;;7.70;28.10;;;;;;4985304;28;20487;-76
2022/03/25 00:45:16;;;;;;;90.35;49.33;;;8.00;27.70;;;;;;4988294;28;20408;-76
2022/03/25 00:47:42;;;;;;;93.32;48.00;;;8.20;27.00;;;;;;4985290;28;20448;-76
2022/03/25 00:50:08;;;;;;;91.45;48.83;;;8.20;27.00;;;;;;4977569;28;20431;-77
2022/03/25 00:52:34;;;;;;;93.18;49.50;;;8.20;27.20;;;;;;4956415;28;20392;-75
2022/03/25 00:55:00;;;;;;;106.20;49.80;;;8.20;27.30;;;;;;4959484;28;20418;-75
2022/03/25 00:57:25;;;;;;;105.27;51.60;;;8.20;27.60;;;;;;4987891;28;20908;-75
2022/03/25 00:59:51;;;;;;;108.83;52.33;;;8.20;27.90;;;;;;4980807;28;20408;-76
2022/03/25 01:02:17;;;;;;;107.90;52.42;;;8.00;28.30;;;;;;4971835;28;20411;-75
2022/03/25 01:04:43;;;;;;;98.28;50.55;;;7.90;29.30;;;;;;4970928;28;20438;-76
2022/03/25 01:07:09;;;;;;;106.63;51.07;;;7.90;29.60;;;;;;4972088;28;20443;-76
2022/03/25 01:09:34;;;;;;;95.30;50.10;;;7.90;29.80;;;;;;4971437;28;20400;-75
2022/03/25 01:12:00;;;;;;;98.00;50.50;;;7.90;30.10;;;;;;4972006;28;20894;-76
2022/03/25 01:14:27;;;;;;;94.30;51.72;;;7.90;30.50;;;;;;4955145;28;20483;-77
2022/03/25 01:16:52;;;;;;;98.47;52.53;;;7.70;30.80;;;;;;4969911;28;20981;-77
2022/03/25 01:19:19;;;;;;;123.45;53.38;;;7.50;31.60;;;;;;4969523;28;20506;-75
2022/03/25 01:21:45;;;;;;;100.15;51.70;;;7.60;31.00;;;;;;4974466;28;20400;-76
2022/03/25 01:24:11;;;;;;;102.85;52.58;;;7.60;30.80;;;;;;4975703;28;20419;-78
2022/03/25 01:26:37;;;;;;;98.43;52.08;;;7.50;31.00;;;;;;4976056;28;20878;-77
2022/03/25 01:29:04;;;;;;;92.18;50.90;;;7.40;32.20;;;;;;4975383;28;20419;-77
2022/03/25 01:31:31;;;;;;;104.35;53.03;;;7.20;32.30;;;;;;4975383;28;20392;-77
2022/03/25 01:33:57;;;;;;;95.85;53.13;;;7.00;33.40;;;;;;4978906;28;20462;-78
2022/03/25 01:36:23;;;;;;;105.15;53.28;;;7.20;33.30;;;;;;4975899;28;20423;-77
2022/03/25 01:38:48;;;;;;;92.35;51.78;;;7.40;32.60;;;;;;4976960;28;20430;-77
2022/03/25 01:41:18;;;;;;;96.97;51.80;;;7.30;32.30;;;;;;4959351;28;20400;-77
2022/03/25 01:43:55;;;;;;;99.10;51.60;;;6.90;33.60;;;;;;4976052;28;20408;-76
2022/03/25 01:46:21;;;;;;;93.27;50.57;;;6.90;34.00;;;;;;4976132;28;20886;-77
2022/03/25 01:48:48;;;;;;;99.70;50.85;;;6.60;34.80;;;;;;4977570;28;20782;-77
2022/03/25 01:51:17;;;;;;;101.63;52.83;;;6.50;36.20;;;;;;4970379;28;20877;-75
2022/03/25 01:53:43;;;;;;;91.68;49.58;;;6.80;35.50;;;;;;4962683;28;20403;-76
2022/03/25 01:56:08;;;;;;;100.50;52.40;;;6.90;34.20;;;;;;4976182;28;20400;-76
2022/03/25 01:58:34;;;;;;;96.10;52.25;;;6.90;33.50;;;;;;4976035;28;20467;-77
2022/03/25 02:01:03;;;;;;;105.90;52.37;;;7.00;33.30;;;;;;4975756;28;20396;-76
2022/03/25 02:03:28;;;;;;;96.30;51.97;;;7.00;32.10;;;;;;4976311;28;20400;-76
2022/03/25 02:05:54;;;;;;;108.30;51.47;;;6.90;31.80;;;;;;4974746;28;20461;-77
2022/03/25 02:08:20;;;;;;;96.60;52.17;;;7.00;32.60;;;;;;4975585;28;20470;-77
2022/03/25 02:10:45;;;;;;;95.32;50.97;;;7.10;32.90;;;;;;4976890;28;20439;-77
2022/03/25 02:13:12;;;;;;;93.68;50.60;;;7.00;32.20;;;;;;4978110;28;20404;-77
2022/03/25 02:15:40;;;;;;;95.28;52.85;;;6.70;32.80;;;;;;4975284;28;20423;-77
2022/03/25 02:18:08;;;;;;;105.65;54.53;;;6.50;33.90;;;;;;4958553;28;20817;-77
2022/03/25 02:20:34;;;;;;;99.93;53.13;;;6.60;34.50;;;;;;4976224;28;20420;-77
2022/03/25 02:23:00;;;;;;;98.75;52.85;;;6.60;33.90;;;;;;4977653;28;20400;-76
2022/03/25 02:25:27;;;;;;;97.55;51.72;;;6.80;33.00;;;;;;4975669;28;20400;-77
2022/03/25 02:27:53;;;;;;;96.68;51.00;;;6.70;32.80;;;;;;4980265;28;20424;-76
2022/03/25 02:30:20;;;;;;;103.80;52.50;;;6.60;32.80;;;;;;4982623;28;20856;-77
2022/03/25 02:32:46;;;;;;;103.28;51.70;;;6.40;33.50;;;;;;4971381;28;20400;-77
2022/03/25 02:35:12;;;;;;;102.63;51.13;;;6.70;33.90;;;;;;4982970;28;20722;-77
2022/03/25 02:40:59;;;;;;;95.70;51.47;;;6.90;31.20;;;;;;4976928;28;20372;-76
2022/03/25 02:43:25;;;;;;;102.93;51.78;;;6.70;31.80;;;;;;4977614;28;20789;-75
2022/03/25 02:45:51;;;;;;;102.82;53.70;;;6.70;32.50;;;;;;4976174;28;20793;-76
2022/03/25 02:48:16;;;;;;;102.30;52.85;;;6.50;33.00;;;;;;4981770;28;20470;-77
2022/03/25 02:50:42;;;;;;;104.07;50.28;;;6.40;33.90;;;;;;4987776;28;20411;-77
2022/03/25 02:53:08;;;;;;;103.55;50.67;;;6.70;33.00;;;;;;4978028;28;20443;-76
2022/03/25 02:55:34;;;;;;;97.70;52.00;;;6.80;31.90;;;;;;4960730;28;20414;-77
2022/03/25 02:57:59;;;;;;;100.27;51.80;;;6.60;32.90;;;;;;4976546;28;20442;-77
2022/03/25 03:00:26;;;;;;;103.70;51.90;;;6.50;33.80;;;;;;4977800;28;20423;-78
2022/03/25 03:02:52;;;;;;;94.85;50.40;;;6.20;34.80;;;;;;4959489;28;20408;-77
2022/03/25 03:05:17;;;;;;;93.57;50.40;;;6.40;35.40;;;;;;4986871;28;20411;-77
2022/03/25 03:07:45;;;;;;;94.07;50.77;;;6.60;33.90;;;;;;4983957;28;20412;-76
2022/03/25 03:10:12;;;;;;;91.65;50.38;;;6.60;33.90;;;;;;4987242;28;20452;-75
2022/03/25 03:12:37;;;;;;;99.13;51.10;;;6.60;33.80;;;;;;4995217;28;20459;-76
2022/03/25 03:15:06;;;;;;;99.20;51.53;;;6.50;34.10;;;;;;4994384;28;20411;-76
2022/03/25 03:17:32;;;;;;;103.95;50.13;;;6.60;34.10;;;;;;4981706;28;20401;-77
2022/03/25 03:19:58;;;;;;;96.95;51.45;;;6.70;33.60;;;;;;4975338;28;20407;-76
2022/03/25 03:22:23;;;;;;;91.03;49.05;;;6.80;33.40;;;;;;4975205;28;20467;-77
2022/03/25 03:24:49;;;;;;;96.63;51.92;;;6.60;33.50;;;;;;4969321;28;20829;-76
2022/03/25 03:27:15;;;;;;;109.00;51.83;;;6.60;34.20;;;;;;4983562;28;20403;-76
2022/03/25 03:29:40;;;;;;;96.10;50.53;;;6.60;34.40;;;;;;4971170;28;20400;-77
2022/03/25 03:32:06;;;;;;;97.40;51.83;;;6.50;34.90;;;;;;4988970;28;20420;-75
2022/03/25 03:34:32;;;;;;;108.15;53.28;;;6.10;36.80;;;;;;4986999;28;20462;-75
2022/03/25 03:36:58;;;;;;;101.95;51.63;;;6.10;36.90;;;;;;4987839;28;20396;-76
2022/03/25 03:39:24;;;;;;;99.85;52.35;;;6.10;37.30;;;;;;4989453;28;20403;-75
2022/03/25 03:41:49;;;;;;;104.23;51.73;;;6.10;37.30;;;;;;4989125;28;20424;-77
2022/03/25 03:44:15;;;;;;;108.00;53.20;;;6.00;38.30;;;;;;4990175;28;20416;-77
2022/03/25 03:46:41;;;;;;;102.43;51.97;;;6.20;37.30;;;;;;4983858;28;20424;-77
2022/03/25 03:49:06;;;;;;;95.43;51.40;;;6.20;36.90;;;;;;4983545;28;20424;-76
2022/03/25 03:51:32;;;;;;;101.47;52.75;;;6.20;36.90;;;;;;4983680;28;20411;-77
2022/03/25 03:53:58;;;;;;;96.53;51.00;;;6.20;37.10;;;;;;4986318;28;20496;-76
2022/03/25 03:56:24;;;;;;;106.03;50.67;;;6.40;35.50;;;;;;4968007;28;20478;-77
2022/03/25 03:58:50;;;;;;;102.85;51.78;;;6.40;35.00;;;;;;4980401;28;20494;-77
2022/03/25 04:01:16;;;;;;;104.72;53.05;;;6.40;35.10;;;;;;4981028;28;20996;-76
2022/03/25 04:03:41;;;;;;;102.05;52.15;;;6.40;35.10;;;;;;4982175;28;20380;-76
2022/03/25 04:06:07;;;;;;;100.18;54.58;;;6.10;36.10;;;;;;4979888;28;20400;-76
2022/03/25 04:08:35;;;;;;;101.75;52.15;;;6.20;36.50;;;;;;4979023;28;20412;-75
2022/03/25 04:11:01;;;;;;;106.03;53.73;;;6.10;36.90;;;;;;4979606;28;20389;-76
2022/03/25 04:13:26;;;;;;;103.13;54.42;;;5.90;37.50;;;;;;4979368;28;20915;-76
2022/03/25 04:15:52;;;;;;;106.82;53.60;;;6.10;36.90;;;;;;4980137;28;20478;-75
2022/03/25 04:18:18;;;;;;;105.63;53.75;;;6.10;36.80;;;;;;4980738;28;20419;-76
2022/03/25 04:20:43;;;;;;;107.82;53.13;;;6.20;35.90;;;;;;4981134;28;20405;-76
2022/03/25 04:23:09;;;;;;;102.68;52.15;;;6.20;35.70;;;;;;4979159;28;20415;-75
2022/03/25 04:25:34;;;;;;;111.30;55.53;;;6.20;35.80;;;;;;4978316;28;20407;-74
2022/03/25 04:28:00;;;;;;;108.90;55.27;;;6.20;35.90;;;;;;4978289;28;20509;-76
2022/03/25 04:30:35;;;;;;;109.70;54.40;;;6.20;36.00;;;;;;4981167;28;20415;-76
2022/03/25 04:33:02;;;;;;;110.95;56.50;;;6.20;35.80;;;;;;4984471;28;20416;-76
2022/03/25 04:35:28;;;;;;;101.93;55.15;;;6.10;37.70;;;;;;4988021;28;20396;-76
2022/03/25 04:37:55;;;;;;;115.80;55.13;;;6.10;37.40;;;;;;4988631;28;20400;-75
2022/03/25 04:40:23;;;;;;;108.47;55.45;;;6.20;36.40;;;;;;4987831;28;20404;-76
2022/03/25 04:42:50;;;;;;;109.65;55.13;;;6.10;36.50;;;;;;4970403;28;20388;-77
2022/03/25 04:45:17;;;;;;;103.22;55.08;;;6.20;36.40;;;;;;4988009;28;20424;-76
2022/03/25 04:47:43;;;;;;;104.87;55.50;;;6.10;36.50;;;;;;4988623;28;20411;-76
2022/03/25 04:50:09;;;;;;;104.18;54.88;;;5.90;37.70;;;;;;4988053;28;20404;-77
2022/03/25 04:52:35;;;;;;;97.35;53.67;;;5.70;37.80;;;;;;4971010;28;20392;-76
2022/03/25 04:55:01;;;;;;;109.57;56.20;;;5.40;39.90;;;;;;4989834;28;20415;-77
2022/03/25 04:57:26;;;;;;;106.97;54.73;;;5.30;41.70;;;;;;4993148;28;20775;-77
2022/03/25 04:59:52;;;;;;;103.18;52.65;;;5.30;42.50;;;;;;4975628;28;20399;-77
2022/03/25 05:02:18;;;;;;;106.60;54.25;;;5.40;41.00;;;;;;4972896;28;20460;-77
2022/03/25 05:04:43;;;;;;;102.37;53.27;;;5.70;39.90;;;;;;4981816;28;20758;-77
2022/03/25 05:07:16;;;;;;;120.13;54.50;;;5.90;38.70;;;;;;4981343;28;20874;-77
2022/03/25 05:09:43;;;;;;;103.82;52.95;;;5.70;38.80;;;;;;4980066;28;20396;-77
2022/03/25 05:12:10;;;;;;;100.68;53.42;;;5.70;39.30;;;;;;4980576;28;20476;-76
2022/03/25 05:14:36;;;;;;;105.63;55.00;;;5.60;39.50;;;;;;4982279;28;20411;-76
2022/03/25 05:17:01;;;;;;;104.10;54.93;;;5.50;39.40;;;;;;4981966;28;20407;-76
2022/03/25 05:19:27;;;;;;;104.47;54.50;;;5.40;39.90;;;;;;4979946;28;20836;-76
2022/03/25 05:21:53;;;;;;;108.72;55.80;;;5.20;41.10;;;;;;4979656;28;20423;-75
2022/03/25 05:24:18;;;;;;;104.63;53.92;;;5.10;43.00;;;;;;4980051;28;20830;-76
2022/03/25 05:26:44;;;;;;;103.07;54.70;;;5.50;40.90;;;;;;4978631;28;20426;-76
2022/03/25 05:29:10;;;;;;;100.40;52.80;;;5.40;40.20;;;;;;4978207;28;20400;-75
2022/03/25 05:31:37;;;;;;;108.88;54.50;;;5.60;39.10;;;;;;4984634;28;20422;-75
2022/03/25 05:34:06;;;;;;;107.88;55.47;;;5.40;39.50;;;;;;4979594;28;20392;-77
2022/03/25 05:36:32;;;;;;;112.95;56.35;;;5.30;41.00;;;;;;4965650;28;20427;-77
2022/03/25 05:38:58;;;;;;;107.63;55.05;;;5.50;40.00;;;;;;4989367;28;20400;-77
2022/03/25 05:41:25;;;;;;;112.55;53.13;;;5.40;40.00;;;;;;4987333;28;20461;-75
2022/03/25 05:43:51;;;;;;;107.85;53.42;;;5.30;41.90;;;;;;4960878;28;20474;-76
2022/03/25 05:46:17;;;;;;;102.97;54.78;;;5.60;39.70;;;;;;4977514;28;20419;-75
2022/03/25 05:48:43;;;;;;;102.40;54.88;;;5.50;39.80;;;;;;4961671;28;20455;-75
2022/03/25 05:51:10;;;;;;;99.30;51.55;;;5.30;41.10;;;;;;4981749;28;20458;-76
2022/03/25 05:53:40;;;;;;;108.93;54.47;;;5.10;43.10;;;;;;4983184;28;20396;-75
2022/03/25 05:56:06;;;;;;;103.20;53.37;;;5.20;42.30;;;;;;4980907;28;20399;-76
2022/03/25 05:58:33;;;;;;;108.75;53.60;;;5.30;41.90;;;;;;4986850;28;20422;-76
2022/03/25 06:00:59;;;;;;;99.72;53.67;;;5.30;42.30;;;;;;4981608;28;20399;-76
2022/03/25 06:03:25;;;;;;;111.15;55.13;;;5.20;42.60;;;;;;4980940;28;20395;-75
2022/03/25 06:05:51;;;;;;;107.85;53.65;;;5.10;43.80;;;;;;4977770;28;20491;-76
2022/03/25 06:08:17;;;;;;;110.77;54.80;;;5.60;40.80;;;;;;4976370;28;20917;-76
2022/03/25 06:10:43;;;;;;;108.47;55.17;;;5.40;40.90;;;;;;4975714;28;20395;-76
2022/03/25 06:13:11;;;;;;;117.22;55.75;;;5.40;41.50;;;;;;4975742;28;20455;-76
2022/03/25 06:15:37;;;;;;;106.90;53.70;;;5.40;41.30;;;;;;4957137;28;20420;-76
2022/03/25 06:18:03;;;;;;;104.93;54.50;;;5.50;42.50;;;;;;4973826;28;20789;-76
2022/03/25 06:20:29;;;;;;;103.57;54.38;;;5.60;41.30;;;;;;4975228;28;20400;-76
2022/03/25 06:22:56;;;;;;;102.50;52.13;;;5.50;41.80;;;;;;4981353;28;20478;-74
2022/03/25 06:25:22;;;;;;;96.80;53.20;;;6.20;38.10;;;;;;4991550;28;20403;-76
2022/03/25 06:27:56;;;;;;;109.13;54.53;;;6.00;38.30;;;;;;4978265;28;20424;-77
2022/03/25 06:30:26;;;;;;;101.38;53.90;;;5.90;39.80;;;;;;4973708;28;20415;-75
2022/03/25 06:32:52;;;;;;;112.35;54.08;;;5.80;40.10;;;;;;4972740;28;20400;-74
2022/03/25 06:35:17;;;;;;;109.20;55.43;;;6.30;37.60;;;;;;4974775;28;20439;-76
2022/03/25 06:37:44;;;;;;;104.07;54.53;;;6.20;38.00;;;;;;4974497;28;20473;-77
2022/03/25 06:40:10;;;;;;;105.57;54.67;;;6.30;37.70;;;;;;4955399;28;20420;-76
2022/03/25 06:42:38;;;;;;;108.80;54.30;;;6.80;35.10;;;;;;4956240;28;20472;-74
2022/03/25 06:45:05;;;;;;;101.32;54.55;;;6.60;35.40;;;;;;4953131;28;20477;-76
2022/03/25 06:47:31;;;;;;;116.40;57.10;;;6.70;35.30;;;;;;4975872;28;20407;-77
2022/03/25 06:49:57;;;;;;;113.55;54.38;;;6.60;36.40;;;;;;4975646;28;20404;-76
2022/03/25 06:52:23;;;;;;;114.68;57.95;;;6.70;37.10;;;;;;4973183;28;20460;-76
2022/03/25 06:54:49;;;;;;;103.18;55.05;;;6.80;36.10;;;;;;4955263;28;20467;-76
2022/03/25 06:57:15;;;;;;;102.88;54.88;;;6.90;36.40;;;;;;4975657;28;20426;-75
2022/03/25 06:59:42;;;;;;;113.43;58.03;;;7.20;35.50;;;;;;4972764;28;20412;-75
2022/03/25 07:02:09;;;;;;;103.60;55.38;;;7.20;34.70;;;;;;4975138;28;20403;-76
2022/03/25 07:04:36;;;;;;;112.30;56.60;;;7.30;35.20;;;;;;4975783;28;20805;-75
2022/03/25 07:07:04;;;;;;;102.80;54.80;;;7.60;32.70;;;;;;4959179;28;20435;-75
2022/03/25 07:09:29;;;;;;;104.13;54.88;;;8.00;31.20;;;;;;4974783;28;20415;-76
2022/03/25 07:11:56;;;;;;;99.05;53.40;;;8.30;29.10;;;;;;4975410;28;20408;-75
2022/03/25 07:14:21;;;;;;;106.07;54.90;;;8.40;28.80;;;;;;4981450;28;20435;-75
2022/03/25 07:16:47;;;;;;;110.80;54.88;;;8.30;30.20;;;;;;4981881;28;20415;-77
2022/03/25 07:19:13;;;;;;;107.20;55.58;;;8.30;30.10;;;;;;4959692;28;20920;-75
2022/03/25 07:21:38;;;;;;;104.72;55.00;;;8.30;30.20;;;;;;4961162;28;20506;-76
2022/03/25 07:24:04;;;;;;;111.60;54.95;;;8.60;28.00;;;;;;4958557;28;20422;-76
2022/03/25 07:26:31;;;;;;;106.38;55.75;;;8.90;27.60;;;;;;4958200;28;20416;-76
2022/03/25 07:28:56;;;;;;;108.78;54.92;;;8.90;27.40;;;;;;4976202;28;20428;-75
2022/03/25 07:31:28;;;;;;;113.47;55.10;;;9.00;26.70;;;;;;4990536;28;20459;-74
2022/03/25 07:33:54;;;;;;;106.50;55.22;;;9.30;26.10;;;;;;4980581;28;20427;-74
2022/03/25 07:36:20;;;;;;;108.88;56.95;;;9.50;24.80;;;;;;4977125;28;20749;-74
2022/03/25 07:38:46;;;;;;;97.18;53.05;;;9.50;24.40;;;;;;4980855;28;20416;-74
2022/03/25 07:41:11;;;;;;;117.05;56.22;;;9.40;25.40;;;;;;4985479;28;20399;-73
2022/03/25 07:43:38;;;;;;;104.95;54.47;;;9.70;24.40;;;;;;4983144;28;20513;-73
2022/03/25 07:46:05;;;;;;;102.28;54.63;;;9.90;23.40;;;;;;4983957;28;20974;-75
2022/03/25 07:48:31;;;;;;;94.95;52.47;;;9.80;23.10;;;;;;4978834;28;20531;-76
2022/03/25 07:50:59;;;;;;;116.10;59.10;;;9.70;23.80;;;;;;4973887;28;20487;-75
2022/03/25 07:53:25;;;;;;;108.00;57.35;;;9.70;24.00;;;;;;4958390;28;20404;-77
2022/03/25 07:55:53;;;;;;;108.23;55.30;;;9.80;24.10;;;;;;4973777;28;20400;-76
2022/03/25 07:58:19;;;;;;;95.43;53.08;;;9.90;23.80;;;;;;4964963;28;20404;-77
2022/03/25 08:00:51;;;;;;;99.80;53.47;;;10.00;23.30;;;;;;4984443;28;20408;-76
2022/03/25 08:03:18;;;;;;;94.82;51.30;;;10.30;22.40;;;;;;4979855;28;20408;-78
2022/03/25 08:05:45;;;;;;;97.35;52.33;;;10.50;20.60;;;;;;4956931;28;20947;-77
2022/03/25 08:08:11;;;;;;;98.50;51.20;;;11.00;19.20;;;;;;4974973;28;20511;-76
2022/03/25 08:10:41;;;;;;;111.95;52.00;;;11.20;18.50;;;;;;4976746;28;20456;-76
2022/03/25 08:13:10;;;;;;;100.18;52.13;;;11.20;18.50;;;;;;4960321;28;20743;-77
2022/03/25 08:15:36;;;;;;;101.32;53.05;;;11.40;18.20;;;;;;4956547;28;20457;-77
2022/03/25 08:18:05;;;;;;;109.83;54.90;;;11.50;17.90;;;;;;4973824;28;20442;-77
2022/03/25 08:20:35;;;;;;;110.22;53.15;;;11.60;17.80;;;;;;4979123;28;20451;-75
2022/03/25 08:23:02;;;;;;;100.82;54.00;;;11.70;17.80;;;;;;4977289;28;20980;-76
2022/03/25 08:28:17;;;;;;;101.93;54.13;;;11.80;18.00;;;;;;4974135;28;20702;-77
2022/03/25 08:30:45;;;;;;;108.57;54.10;;;12.00;18.00;;;;;;4971832;28;20422;-76
2022/03/25 08:33:11;;;;;;;107.53;54.63;;;12.10;18.30;;;;;;4955860;28;20528;-76
2022/03/25 08:35:38;;;;;;;97.28;50.80;;;12.20;18.40;;;;;;4976080;28;20419;-74
2022/03/25 08:38:05;;;;;;;99.82;49.72;;;12.30;17.80;;;;;;4971422;28;20412;-76
2022/03/25 08:40:32;;;;;;;94.40;49.10;;;12.30;17.40;;;;;;4972056;28;20997;-76
2022/03/25 08:42:58;;;;;;;93.57;47.78;;;12.40;17.00;;;;;;4975633;28;20420;-76
2022/03/25 08:45:24;;;;;;;94.82;46.92;;;12.40;16.90;;;;;;4981383;28;20419;-77
2022/03/25 08:47:50;;;;;;;95.10;47.53;;;12.50;16.80;;;;;;4959630;28;20408;-75
2022/03/25 08:50:18;;;;;;;84.72;45.85;;;12.60;16.80;;;;;;4972638;28;20463;-75
2022/03/25 08:52:45;;;;;;;84.82;43.33;;;12.60;16.50;;;;;;4955753;28;20396;-75
2022/03/25 08:55:12;;;;;;;87.00;44.13;;;12.90;15.90;;;;;;4970063;28;20921;-74
2022/03/25 08:57:38;;;;;;;89.25;45.20;;;13.10;14.90;;;;;;4970046;28;20419;-74
2022/03/25 09:00:10;;;;;;;104.40;46.05;;;13.10;15.30;;;;;;4973052;28;20897;-75
2022/03/25 09:02:37;;;;;;;85.57;46.78;;;13.20;15.40;;;;;;4969861;28;20440;-74
2022/03/25 09:05:03;;;;;;;96.40;47.40;;;13.30;15.10;;;;;;4977438;28;20494;-74
2022/03/25 09:07:29;;;;;;;83.32;44.30;;;13.40;15.10;;;;;;4981437;28;20439;-73
2022/03/25 09:09:55;;;;;;;95.88;47.95;;;13.50;14.40;;;;;;4977000;28;20419;-73
2022/03/25 09:12:21;;;;;;;94.17;46.67;;;13.50;14.90;;;;;;4951764;28;20447;-75
2022/03/25 09:14:46;;;;;;;87.63;46.27;;;13.60;15.30;;;;;;4970669;28;20412;-76
2022/03/25 09:17:12;;;;;;;83.70;45.40;;;13.80;14.50;;;;;;4955614;28;20484;-76
2022/03/25 09:19:37;;;;;;;84.32;45.20;;;13.90;13.60;;;;;;4972063;28;20497;-76
2022/03/25 09:22:03;;;;;;;89.22;44.72;;;14.00;13.70;;;;;;4972478;28;20400;-78
2022/03/25 09:24:30;;;;;;;85.60;43.40;;;14.10;13.50;;;;;;4951744;28;20486;-76
2022/03/25 09:26:55;;;;;;;81.07;42.58;;;14.30;13.10;;;;;;4970327;28;20495;-74
2022/03/25 09:29:21;;;;;;;81.10;42.80;;;14.30;13.10;;;;;;4968658;28;20510;-75
2022/03/25 09:31:47;;;;;;;82.53;41.63;;;14.40;12.60;;;;;;4969916;28;20865;-75
2022/03/25 09:36:56;;;;;;;68.75;36.58;;;14.80;12.20;;;;;;4969879;28;20778;-76
2022/03/25 09:39:22;;;;;;;70.05;37.63;;;15.00;11.60;;;;;;4970162;28;20416;-75
2022/03/25 09:41:49;;;;;;;75.25;36.38;;;15.20;11.40;;;;;;4972257;28;20431;-74
2022/03/25 09:44:16;;;;;;;62.58;33.45;;;15.30;11.40;;;;;;4976270;28;20440;-75
2022/03/25 09:46:43;;;;;;;65.30;32.93;;;15.40;10.30;;;;;;4974219;28;20404;-76
2022/03/25 09:49:12;;;;;;;59.30;29.65;;;15.40;10.70;;;;;;4974826;28;20446;-77
2022/03/25 09:51:41;;;;;;;47.97;25.90;;;15.60;9.80;;;;;;4970794;28;20487;-75
2022/03/25 09:54:08;;;;;;;51.90;22.52;;;15.70;9.10;;;;;;4970867;28;20398;-78
2022/03/25 09:56:34;;;;;;;50.63;24.63;;;15.70;8.60;;;;;;4981441;28;20404;-78
2022/03/25 09:59:00;;;;;;;56.63;25.48;;;15.70;8.90;;;;;;4978618;28;20489;-75
2022/03/25 10:01:26;;;;;;;52.60;26.35;;;15.80;9.30;;;;;;4974604;28;20419;-75
2022/03/25 10:03:52;;;;;;;56.13;27.40;;;15.90;9.50;;;;;;4980030;28;20450;-75
2022/03/25 10:06:18;;;;;;;58.97;28.40;;;16.00;9.60;;;;;;4986095;28;20395;-77
2022/03/25 10:08:56;;;;;;;52.00;27.43;;;16.00;9.50;;;;;;4975444;28;20720;-74
2022/03/25 10:11:32;;;;;;;65.90;28.45;;;16.10;9.30;;;;;;4974233;28;20495;-76
2022/03/25 10:14:17;;;;;;;53.80;28.40;;;16.10;9.50;;;;;;4976196;28;20465;-75
2022/03/25 10:16:45;;;;;;;50.88;27.25;;;16.10;9.50;;;;;;4972000;28;20416;-74
2022/03/25 10:19:12;;;;;;;55.38;26.60;;;16.20;9.20;;;;;;4956772;28;20415;-75
2022/03/25 10:21:59;;;;;;;56.53;28.95;;;16.20;8.40;;;;;;4972721;28;20573;-77
2022/03/25 10:24:45;;;;;;;50.55;26.95;;;16.30;8.80;;;;;;4968707;28;20408;-74
2022/03/25 10:27:11;;;;;;;58.17;29.67;;;16.40;8.70;;;;;;4972892;28;20404;-77
2022/03/25 10:29:37;;;;;;;61.05;31.58;;;16.40;8.70;;;;;;4972608;28;20502;-76
2022/03/25 10:32:10;;;;;;;55.17;28.52;;;16.30;9.10;;;;;;4973166;28;20396;-76
2022/03/25 10:34:38;;;;;;;53.70;27.63;;;16.30;9.70;;;;;;4975273;28;20407;-74
2022/03/25 10:37:07;;;;;;;63.65;30.73;;;16.40;8.70;;;;;;4973162;28;20422;-73
2022/03/25 10:39:33;;;;;;;63.10;29.70;;;16.40;9.30;;;;;;4972348;28;20420;-75
2022/03/25 10:42:01;;;;;;;53.03;30.90;;;16.50;9.00;;;;;;4973231;28;20509;-78
2022/03/25 10:44:37;;;;;;;59.67;31.27;;;16.50;9.90;;;;;;4959917;28;20411;-74
2022/03/25 10:47:24;;;;;;;58.58;30.17;;;16.60;9.40;;;;;;4971951;28;20999;-74
2022/03/25 10:49:51;;;;;;;57.65;29.45;;;16.60;8.60;;;;;;4972405;28;20456;-77
2022/03/25 10:52:34;;;;;;;57.22;29.33;;;16.60;9.00;;;;;;4979337;28;20506;-72
2022/03/25 10:55:19;;;;;;;63.20;31.15;;;16.60;9.30;;;;;;4963524;28;20430;-77
2022/03/25 10:57:58;;;;;;;59.10;30.60;;;16.80;9.80;;;;;;4972800;28;20450;-72
2022/03/25 11:00:25;;;;;;;59.88;31.45;;;17.00;8.80;;;;;;4974443;28;20415;-73
2022/03/25 11:02:52;;;;;;;56.80;30.98;;;17.00;8.70;;;;;;4972762;28;20412;-74
2022/03/25 11:05:18;;;;;;;60.80;30.90;;;16.90;7.80;;;;;;4970201;28;20854;-73
2022/03/25 11:07:46;;;;;;;58.05;28.33;;;16.80;8.10;;;;;;4973875;28;20507;-72
2022/03/25 11:10:14;;;;;;;62.33;30.25;;;16.80;9.80;;;;;;4971964;28;20490;-73
2022/03/25 11:12:45;;;;;;;53.37;30.07;;;16.90;8.40;;;;;;4956085;28;20412;-74
2022/03/25 11:15:15;;;;;;;49.92;27.17;;;16.90;8.30;;;;;;4955736;28;20455;-73
2022/03/25 11:17:41;;;;;;;59.22;27.73;;;17.10;6.90;;;;;;4959169;28;20444;-74
2022/03/25 11:20:10;;;;;;;56.92;28.10;;;17.10;6.30;;;;;;4956458;28;20404;-73
2022/03/25 11:22:42;;;;;;;51.25;27.95;;;17.10;7.10;;;;;;4969459;28;20518;-74
2022/03/25 11:25:10;;;;;;;49.47;26.52;;;17.20;7.20;;;;;;4971153;28;20415;-73
2022/03/25 11:27:38;;;;;;;44.53;24.00;;;17.40;6.40;;;;;;4980979;28;20407;-74
2022/03/25 11:30:13;;;;;;;47.07;24.00;;;17.40;6.00;;;;;;4984900;28;20405;-72
2022/03/25 11:32:57;;;;;;;56.42;28.05;;;17.10;6.40;;;;;;4978986;28;20410;-73
2022/03/25 11:35:24;;;;;;;47.33;27.67;;;17.30;7.90;;;;;;4970203;28;20515;-73
2022/03/25 11:38:09;;;;;;;54.90;28.50;;;17.60;6.90;;;;;;4976377;28;20408;-74
2022/03/25 11:40:39;;;;;;;48.45;26.00;;;17.80;6.40;;;;;;4971044;28;20504;-73
2022/03/25 11:43:27;;;;;;;49.67;25.00;;;18.10;6.30;;;;;;4981884;28;20475;-73
2022/03/25 11:46:07;;;;;;;44.13;24.80;;;18.40;6.20;;;;;;4975230;28;20424;-76
2022/03/25 11:48:38;;;;;;;32.22;18.25;;;18.50;5.50;;;;;;4979868;28;20498;-75
2022/03/25 11:51:28;;;;;;;37.70;15.20;;;18.50;4.10;;;;;;4961536;28;20418;-74
2022/03/25 11:53:54;;;;;;;40.28;20.70;;;18.40;3.50;;;;;;4972004;28;20412;-75
2022/03/25 11:56:20;;;;;;;50.70;23.65;;;18.10;4.40;;;;;;4975325;28;20408;-76
2022/03/25 11:58:55;;;;;;;50.13;24.13;;;17.90;5.00;;;;;;4951932;28;20788;-76
2022/03/25 12:01:21;;;;;;;50.90;23.10;;;18.00;5.60;;;;;;4970198;28;20423;-73
2022/03/25 12:03:58;;;;;;;35.00;17.05;;;18.20;4.30;;;;;;4972348;28;20400;-74
2022/03/25 12:06:28;;;;;;;37.17;18.80;;;18.00;4.00;;;;;;4976198;28;20488;-74
2022/03/25 12:09:20;;;;;;;40.67;19.08;;;18.00;4.00;;;;;;4962288;28;20404;-74
2022/03/25 12:11:55;;;;;;;39.03;17.85;;;17.90;3.80;;;;;;4966028;28;20419;-75
2022/03/25 12:14:31;;;;;;;42.70;20.70;;;18.00;3.30;;;;;;4953617;28;20463;-75
2022/03/25 12:17:07;;;;;;;41.42;23.23;;;18.00;4.50;;;;;;4971817;28;20396;-74
2022/03/25 12:19:39;;;;;;;41.58;21.70;;;18.20;4.30;;;;;;4972626;28;20400;-73
2022/03/25 12:22:20;;;;;;;48.67;26.42;;;18.10;3.80;;;;;;4971474;28;20751;-75
2022/03/25 12:24:51;;;;;;;52.40;27.25;;;18.00;5.10;;;;;;4971899;28;20405;-74
2022/03/25 12:27:18;;;;;;;48.15;27.73;;;18.00;5.60;;;;;;4972872;28;20396;-74
2022/03/25 12:29:48;;;;;;;53.83;26.13;;;18.00;5.90;;;;;;4971094;28;20424;-73
2022/03/25 12:32:15;;;;;;;54.58;26.15;;;18.10;5.70;;;;;;4971235;28;20408;-75
2022/03/25 12:34:53;;;;;;;52.95;26.23;;;18.10;5.00;;;;;;4972085;28;20484;-75
2022/03/25 12:37:34;;;;;;;50.72;26.95;;;17.90;4.80;;;;;;4970044;28;20495;-76
2022/03/25 12:40:13;;;;;;;48.53;25.92;;;18.00;5.20;;;;;;4969972;28;20478;-74
2022/03/25 12:42:39;;;;;;;51.78;25.80;;;18.10;5.10;;;;;;4970735;28;20408;-74